Latest Weather Observations for Kilmore Gap

IDV60801

Issued at 3:05 pm EST Friday 18 April 2014 (issued every 30 minutes, with the page automatically refreshed every 10 minutes)

About weather observations | Map of weather stations | Latest weather observations for VIC | Other Formats
Station Details ID: 088162 Name: KILMORE GAP Lat: -37.38 Lon: 144.97 Height: 527.8 m
Data from the previous 72 hours. | See also: Recent months at Kilmore Gap
Date/Time
EST
Temp
°C
App
Temp
°C
Dew
Point
Rel
Hum
%
Delta-T
°C
Wind Press
QNH
hPa
Press
MSL
hPa
Rain
since 9 am
mm
Dir
 
Spd
km/h
Gust
km/h
Spd
kts
Gust
kts
18/03:03pm 11.2 7.6 10.7 97 0.3 SSW 20 32 11 17 1017.4 - 0.6
18/03:00pm 11.0 7.0 10.5 97 0.3 SSW 22 32 12 17 1017.3 1016.8 0.6
18/02:54pm 10.8 6.8 10.3 97 0.3 SSW 22 35 12 19 1017.4 - 0.6
18/02:47pm 10.6 6.1 10.0 96 0.3 SSW 24 35 13 19 1017.4 - 0.6
18/02:44pm 10.5 5.2 9.9 96 0.3 SSW 28 46 15 25 1017.4 - 0.6
18/02:42pm 10.4 5.0 9.6 95 0.4 S 28 46 15 25 1017.3 - 0.6
18/02:30pm 13.0 8.3 9.3 78 1.9 SW 24 39 13 21 1017.0 - 0.4
18/02:07pm 12.5 8.2 9.5 82 1.6 SSW 22 33 12 18 1016.9 - 0.4
18/02:00pm 12.3 7.3 9.7 84 1.4 SSW 26 44 14 24 1016.7 - 0.4
18/01:30pm 12.4 7.7 10.6 89 1.0 SW 26 37 14 20 1016.4 - 0.4
18/01:00pm 11.0 6.2 10.4 96 0.3 SW 26 43 14 23 1017.0 - 0.4
18/12:37pm 11.4 6.4 11.1 98 0.2 SW 28 41 15 22 1016.9 - 0.2
18/12:30pm 11.4 6.9 11.4 100 0.0 SW 26 37 14 20 1016.8 - 0.2
18/12:02pm 11.0 6.3 10.8 99 0.1 SW 26 50 14 27 1016.9 - 0.0
18/12:00pm 10.9 5.8 10.7 99 0.1 SW 28 50 15 27 1016.9 1016.4 0.0
18/11:53am 11.1 5.3 10.8 98 0.2 SW 32 50 17 27 1016.9 - 0.0
18/11:51am 11.1 5.0 10.6 97 0.3 SW 33 50 18 27 1016.9 - 0.0
18/11:44am 12.3 7.1 10.2 87 1.1 WSW 28 50 15 27 1016.9 - 0.0
18/11:30am 14.2 10.7 10.8 80 1.8 WSW 20 35 11 19 1016.7 - 0.0
18/11:00am 14.7 11.7 10.7 77 2.2 WNW 17 24 9 13 1016.4 - 0.0
18/10:30am 14.9 11.1 11.1 78 2.1 NW 22 30 12 16 1016.4 - 0.0
18/10:00am 12.7 8.9 9.9 83 1.5 NNW 20 26 11 14 1016.4 - 0.0
18/09:30am 12.9 8.0 9.9 82 1.6 N 26 32 14 17 1016.3 - 0.0
18/09:00am 12.3 7.9 10.4 88 1.0 N 24 30 13 16 1016.3 1015.9 0.0
18/08:30am 11.1 6.9 9.7 91 0.7 N 22 28 12 15 1016.7 - 0.0
18/08:00am 10.5 6.6 9.4 93 0.6 N 20 24 11 13 1016.7 - 0.0
18/07:30am 10.8 6.8 9.2 90 0.8 N 20 22 11 12 1016.6 - 0.0
18/07:00am 10.4 6.4 9.0 91 0.7 N 20 22 11 12 1016.7 - 0.0
18/06:30am 10.3 6.8 8.7 90 0.8 N 17 20 9 11 1016.7 - 0.0
18/06:00am 10.8 7.3 8.7 87 1.1 N 17 20 9 11 1016.9 1016.4 0.0
18/05:30am 10.9 7.0 8.8 87 1.1 N 19 20 10 11 1016.9 - 0.0
18/05:00am 10.0 6.0 8.4 90 0.8 N 19 20 10 11 1016.9 - 0.0
18/04:30am 10.7 6.8 8.8 88 1.0 N 19 20 10 11 1016.9 - 0.0
18/04:00am 10.8 6.7 8.7 87 1.1 N 20 24 11 13 1016.9 - 0.0
18/03:30am 10.9 6.8 8.7 86 1.1 N 20 22 11 12 1017.0 - 0.0
18/03:00am 10.7 6.8 8.5 86 1.1 N 19 22 10 12 1016.9 1016.4 0.0
18/02:30am 10.9 7.3 8.5 85 1.2 N 17 20 9 11 1017.1 - 0.0
18/02:00am 11.8 7.9 8.6 81 1.6 N 19 22 10 12 1017.6 - 0.0
18/01:30am 11.9 7.8 8.7 81 1.6 N 20 24 11 13 1018.0 - 0.0
18/01:00am 12.4 8.6 9.1 80 1.7 N 19 22 10 12 1018.1 - 0.0
18/12:30am 13.0 9.1 9.3 78 1.9 N 20 22 11 12 1018.4 - 0.0
18/12:00am 13.3 9.2 8.8 74 2.3 N 20 24 11 13 1018.8 1018.3 0.0
 
Date/Time
EST
Temp
°C
App
Temp
°C
Dew
Point
Rel
Hum
%
Delta-T
°C
Wind Press
QNH
hPa
Press
MSL
hPa
Rain
since 9 am
mm
Dir
 
Spd
km/h
Gust
km/h
Spd
kts
Gust
kts
17/11:30pm 13.7 9.7 9.0 73 2.4 N 20 24 11 13 1019.0 - 0.0
17/11:00pm 13.6 9.2 9.1 74 2.3 N 22 26 12 14 1019.2 - 0.0
17/10:30pm 13.7 9.3 9.0 73 2.4 N 22 26 12 14 1019.4 - 0.0
17/10:00pm 13.6 9.6 8.4 71 2.7 N 19 22 10 12 1019.7 - 0.0
17/09:30pm 13.8 9.8 8.2 69 2.9 N 19 20 10 11 1019.6 - 0.0
17/09:00pm 14.7 10.4 8.0 64 3.4 N 20 24 11 13 1019.6 1019.2 0.0
17/08:30pm 14.8 10.8 8.1 64 3.5 N 19 22 10 12 1019.6 - 0.0
17/08:00pm 15.3 11.3 8.3 63 3.6 N 19 22 10 12 1019.8 - 0.0
17/07:30pm 15.4 11.9 8.9 65 3.4 N 17 19 9 10 1019.8 - 0.0
17/07:00pm 15.4 11.6 9.1 66 3.3 NNW 19 20 10 11 1019.8 - 0.0
17/06:30pm 16.0 12.0 9.0 63 3.7 NNW 20 22 11 12 1019.6 - 0.0
17/06:00pm 16.0 12.2 9.0 63 3.7 N 19 22 10 12 1019.5 1019.0 0.0
17/05:30pm 16.6 12.9 9.3 62 3.9 N 19 24 10 13 1019.4 - 0.0
17/05:00pm 17.6 13.7 9.5 59 4.4 NNW 20 26 11 14 1019.3 - 0.0
17/04:30pm 18.9 15.9 9.4 54 5.1 NNW 15 20 8 11 1019.4 - 0.0
17/04:00pm 19.6 16.4 9.8 53 5.4 NNW 17 30 9 16 1019.5 - 0.0
17/03:30pm 19.4 16.9 8.4 49 5.9 NW 11 17 6 9 1019.6 - 0.0
17/03:00pm 20.4 18.2 9.3 49 6.0 NNW 11 17 6 9 1019.9 1019.5 0.0
17/02:30pm 20.3 18.2 9.8 51 5.8 NNW 11 17 6 9 1020.0 - 0.0
17/02:00pm 20.3 19.2 11.8 58 4.8 N 9 15 5 8 1020.1 - 0.0
17/01:30pm 19.7 16.3 10.4 55 5.2 N 19 24 10 13 1020.3 - 0.0
17/01:00pm 19.6 17.6 10.0 54 5.3 N 11 20 6 11 1020.7 - 0.0
17/12:30pm 19.6 15.9 9.5 52 5.5 N 19 24 10 13 1020.9 - 0.0
17/12:00pm 18.9 16.0 9.7 55 5.0 N 15 24 8 13 1021.3 1020.9 0.0
17/11:30am 17.8 15.5 7.5 51 5.3 W 9 19 5 10 1021.7 - 0.0
17/11:00am 18.5 16.4 6.7 46 6.1 NW 7 13 4 7 1021.8 - 0.0
17/10:30am 17.5 15.3 9.4 59 4.3 NNW 11 15 6 8 1021.6 - 0.0
17/10:00am 16.6 14.0 9.3 62 3.9 NNW 13 17 7 9 1021.6 - 0.0
17/09:30am 16.3 14.4 10.4 68 3.2 NNW 11 15 6 8 1021.8 - 0.0
17/09:00am 15.5 13.3 10.7 73 2.6 N 13 15 7 8 1021.8 1021.4 0.2
17/08:30am 14.2 11.8 10.0 76 2.2 N 13 17 7 9 1021.7 - 0.2
17/08:00am 13.8 10.9 9.6 76 2.2 N 15 17 8 9 1021.5 - 0.2
17/07:30am 13.2 9.9 7.9 70 2.7 NNW 15 19 8 10 1021.3 - 0.2
17/07:00am 12.7 9.3 7.6 71 2.6 NNW 15 17 8 9 1021.0 - 0.2
17/06:30am 12.6 9.2 7.7 72 2.5 NNW 15 19 8 10 1020.8 - 0.2
17/06:00am 12.8 9.5 7.9 72 2.5 NNW 15 17 8 9 1020.7 1020.2 0.2
17/05:30am 13.0 10.0 7.9 71 2.6 NNW 13 15 7 8 1020.6 - 0.2
17/05:00am 12.7 10.0 8.8 77 2.0 NW 13 15 7 8 1020.3 - 0.2
17/04:30am 13.0 10.6 8.7 75 2.2 NNW 11 13 6 7 1020.2 - 0.2
17/04:00am 12.9 10.6 9.0 77 2.0 NW 11 13 6 7 1020.1 - 0.2
17/03:30am 12.7 10.7 8.6 76 2.1 NNW 9 11 5 6 1020.0 - 0.2
17/03:00am 13.4 11.5 8.9 74 2.3 N 9 9 5 5 1019.9 1019.5 0.2
17/02:30am 13.1 11.1 8.6 74 2.3 N 9 11 5 6 1019.9 - 0.2
17/02:00am 13.9 12.4 9.1 73 2.5 N 7 9 4 5 1020.0 - 0.2
17/01:30am 12.8 11.4 9.4 80 1.8 NW 7 9 4 5 1020.3 - 0.2
17/01:00am 12.5 10.7 9.5 82 1.6 NW 9 11 5 6 1020.4 - 0.2
17/12:30am 12.9 11.4 9.2 78 1.9 NW 7 9 4 5 1020.3 - 0.2
17/12:00am 13.6 12.1 9.3 75 2.2 ENE 7 7 4 4 1020.2 1019.8 0.2
 
Date/Time
EST
Temp
°C
App
Temp
°C
Dew
Point
Rel
Hum
%
Delta-T
°C
Wind Press
QNH
hPa
Press
MSL
hPa
Rain
since 9 am
mm
Dir
 
Spd
km/h
Gust
km/h
Spd
kts
Gust
kts
16/11:30pm 13.3 11.6 9.7 79 1.9 ENE 9 11 5 6 1020.1 - 0.2
16/11:00pm 12.5 10.8 10.0 85 1.3 E 9 13 5 7 1020.3 - 0.2
16/10:30pm 12.8 11.6 10.3 85 1.3 ESE 7 7 4 4 1020.7 - 0.2
16/10:00pm 12.6 11.5 10.5 87 1.1 SE 7 9 4 5 1020.8 - 0.2
16/09:30pm 12.3 10.5 10.9 91 0.8 SE 11 13 6 7 1021.0 - 0.2
16/09:00pm 12.5 10.4 11.2 92 0.7 SE 13 15 7 8 1020.9 1020.4 0.2
16/08:30pm 12.4 10.3 11.0 91 0.8 SE 13 15 7 8 1020.9 - 0.2
16/08:00pm 12.8 11.1 11.2 90 0.9 SE 11 13 6 7 1020.9 - 0.2
16/07:30pm 12.9 11.3 11.5 91 0.8 SSE 11 13 6 7 1020.8 - 0.2
16/07:00pm 13.3 12.4 11.5 89 1.0 S 7 9 4 5 1020.6 - 0.2
16/06:30pm 14.1 12.8 11.3 83 1.5 SSW 9 15 5 8 1020.2 - 0.2
16/06:00pm 14.8 12.9 7.6 62 3.7 W 7 13 4 7 1019.9 1019.5 0.2
16/05:30pm 15.8 13.6 7.8 59 4.1 W 9 15 5 8 1019.7 - 0.2
16/05:00pm 16.8 13.9 8.0 56 4.6 WNW 13 20 7 11 1019.6 - 0.2
16/04:30pm 16.4 13.4 9.1 62 3.9 NNW 15 20 8 11 1019.4 - 0.2
16/04:00pm 16.5 13.7 8.5 59 4.2 N 13 20 7 11 1019.4 - 0.2
16/03:30pm 16.5 13.5 9.4 63 3.8 NNW 15 19 8 10 1019.5 - 0.2
16/03:25pm 16.4 13.2 8.6 60 4.1 NNW 15 19 8 10 1019.5 - 0.2
16/03:09pm 18.2 14.9 9.5 57 4.7 NNW 17 24 9 13 1019.5 - 0.2
16/03:00pm 17.9 15.4 9.8 59 4.4 NW 13 20 7 11 1019.5 1019.0 0.2
16/02:30pm 18.0 14.9 10.4 61 4.2 N 17 24 9 13 1019.5 - 0.2
16/02:00pm 17.3 14.1 10.0 62 4.0 NW 17 26 9 14 1019.6 - 0.2
16/01:30pm 17.3 14.1 10.0 62 4.0 N 17 30 9 16 1019.7 - 0.2
16/01:00pm 16.4 12.3 10.0 66 3.5 N 22 32 12 17 1019.7 - 0.2
16/12:30pm 17.1 13.2 10.9 67 3.4 N 22 32 12 17 1020.1 - 0.2
16/12:00pm 16.1 12.6 10.8 71 2.9 N 20 30 11 16 1020.6 1020.1 0.2
16/11:30am 16.1 12.3 11.1 72 2.8 N 22 30 12 16 1020.8 - 0.0
16/11:00am 15.6 11.2 10.4 71 2.8 N 24 30 13 16 1020.9 - 0.0
16/10:30am 15.5 11.0 10.1 70 2.9 N 24 32 13 17 1021.1 - 0.0
16/10:00am 15.0 10.5 10.2 73 2.6 N 24 32 13 17 1021.2 - 0.0
16/09:30am 13.9 10.5 10.5 80 1.8 N 19 22 10 12 1021.3 - 0.0
16/09:00am 13.0 9.9 10.2 83 1.5 N 17 20 9 11 1021.4 1021.0 0.0
16/08:30am 12.6 9.7 9.6 82 1.6 NNE 15 19 8 10 1021.2 - 0.0
16/08:00am 11.2 9.0 9.3 88 1.0 NE 11 15 6 8 1021.1 - 0.0
16/07:30am 11.5 10.0 10.7 95 0.4 E 9 11 5 6 1021.0 - 0.0
16/07:00am 10.2 8.5 9.7 97 0.3 E 9 11 5 6 1020.8 - 0.0
16/06:30am 10.2 9.1 9.9 98 0.2 S 6 7 3 4 1020.9 - 0.0
16/06:00am 10.1 8.4 9.9 99 0.1 SW 9 11 5 6 1020.9 1020.4 0.0
16/05:30am 9.9 7.5 9.9 100 0.0 SW 13 15 7 8 1020.9 - 0.0
16/05:00am 9.9 7.8 9.9 100 0.0 SW 11 15 6 8 1020.7 - 0.0
16/04:57am 10.0 8.0 10.0 100 0.0 SW 11 13 6 7 1020.7 - 0.0
16/04:30am 9.9 7.8 9.9 100 0.0 SW 11 13 6 7 1020.4 - 0.0
16/04:00am 10.0 8.0 10.0 100 0.0 SSW 11 13 6 7 1020.3 - 0.0
16/03:39am 9.9 7.5 9.9 100 0.0 SW 13 17 7 9 1020.2 - 0.0
16/03:30am 10.0 7.2 10.0 100 0.0 SW 15 17 8 9 1020.3 - 0.0
16/03:00am 10.2 7.5 10.2 100 0.0 SW 15 17 8 9 1020.6 1020.1 0.0
16/02:30am 10.1 7.3 10.1 100 0.0 SW 15 19 8 10 1020.7 - 0.0
16/02:00am 10.4 7.7 10.4 100 0.0 WSW 15 20 8 11 1021.2 - 0.0
16/01:30am 10.5 7.8 10.5 100 0.0 WSW 15 20 8 11 1021.5 - 0.0
16/01:00am 10.6 7.6 10.6 100 0.0 WSW 17 22 9 12 1021.6 - 0.0
16/12:30am 10.7 7.7 10.7 100 0.0 WSW 17 22 9 12 1021.7 - 0.0
16/12:00am 10.9 8.4 10.9 100 0.0 SW 15 20 8 11 1021.8 1021.4 0.0
 
Date/Time
EST
Temp
°C
App
Temp
°C
Dew
Point
Rel
Hum
%
Delta-T
°C
Wind Press
QNH
hPa
Press
MSL
hPa
Rain
since 9 am
mm
Dir
 
Spd
km/h
Gust
km/h
Spd
kts
Gust
kts
15/11:30pm 10.9 8.0 10.9 100 0.0 SW 17 20 9 11 1021.9 - 0.0
15/11:00pm 10.9 8.0 10.9 100 0.0 SW 17 22 9 12 1022.3 - 0.0
15/10:30pm 10.9 7.6 10.9 100 0.0 SW 19 22 10 12 1022.6 - 0.0
15/10:00pm 11.0 7.5 11.0 100 0.0 SW 20 26 11 14 1022.7 - 0.0
15/09:39pm 10.9 7.6 10.9 100 0.0 SW 19 22 10 12 1022.8 - 0.0
15/09:30pm 10.9 7.4 10.9 100 0.0 SW 20 24 11 13 1022.8 - 0.0
15/09:28pm 11.0 7.5 11.0 100 0.0 SSW 20 24 11 13 1022.8 - 0.0
15/09:00pm 11.1 7.8 10.9 99 0.1 SSW 19 26 10 14 1022.8 1022.3 0.0
15/08:30pm 11.5 8.3 11.2 98 0.2 SSW 19 26 10 14 1022.7 - 0.0
15/08:00pm 11.6 8.3 11.0 96 0.3 SSW 19 28 10 15 1022.6 - 0.0
15/07:30pm 11.9 8.5 11.4 97 0.3 SSW 20 28 11 15 1022.6 - 0.0
15/07:00pm 12.1 8.7 11.3 95 0.4 SSW 20 30 11 16 1022.4 - 0.0
15/06:30pm 12.4 9.0 11.3 93 0.6 SSW 20 30 11 16 1022.1 - 0.0
15/06:00pm 12.7 9.4 10.9 89 1.0 SSW 19 26 10 14 1022.0 1021.6 0.0
15/05:30pm 13.7 10.1 10.7 82 1.6 SSW 20 30 11 16 1021.7 - 0.0
15/05:00pm 14.7 12.0 10.3 75 2.4 S 15 24 8 13 1021.7 - 0.0
15/04:30pm 15.4 12.3 10.2 71 2.8 S 17 24 9 13 1021.6 - 0.0
15/04:00pm 16.0 12.1 8.5 61 3.9 SSE 19 26 10 14 1021.7 - 0.0
15/03:30pm 17.0 13.6 9.2 60 4.2 S 17 26 9 14 1021.9 - 0.0

Other Formats:

Comma delimited format used in spreadsheet applications
http://www.bom.gov.au/fwo/IDV60801/IDV60801.94860.axf

JavaScript Object Notation format (JSON) in row-major order
http://www.bom.gov.au/fwo/IDV60801/IDV60801.94860.json